Time;durP1;ratioP1;P1;durP2;ratioP2;P2;SDS_P1;SDS_P2;PMS_P1;PMS_P2;Temp;Humidity;BMP_temperature;BMP_pressure;BME280_temperature;BME280_humidity;BME280_pressure;Samples;Min_cycle;Max_cycle;Signal;HPM_P1;HPM_P2
2021/03/13 00:00:53;;;;;;;1.00;0.50;;;6.40;35.00;;;;;;5049640;28;20211;-74
2021/03/13 00:03:19;;;;;;;1.00;0.50;;;6.40;35.60;;;;;;5048997;28;20766;-73
2021/03/13 00:05:45;;;;;;;1.20;0.60;;;6.40;35.00;;;;;;5049250;28;20268;-74
2021/03/13 00:08:11;;;;;;;1.20;0.80;;;6.40;35.00;;;;;;5050187;28;20196;-73
2021/03/13 00:10:39;;;;;;;1.05;0.60;;;6.30;35.10;;;;;;5049597;28;20209;-74
2021/03/13 00:13:05;;;;;;;1.10;0.80;;;6.30;35.10;;;;;;5049971;28;20179;-74
2021/03/13 00:15:31;;;;;;;1.58;0.90;;;6.30;35.20;;;;;;5052218;28;20175;-73
2021/03/13 00:17:57;;;;;;;3.38;1.02;;;6.20;35.20;;;;;;5053880;28;20170;-73
2021/03/13 00:20:25;;;;;;;3.15;0.80;;;6.20;35.20;;;;;;5053311;28;20207;-73
2021/03/13 00:22:52;;;;;;;1.67;1.00;;;6.10;35.60;;;;;;5054276;28;20172;-73
2021/03/13 00:25:19;;;;;;;2.00;1.23;;;6.10;35.70;;;;;;5053746;28;20253;-74
2021/03/13 00:27:47;;;;;;;1.70;0.80;;;6.10;35.50;;;;;;5052579;28;20229;-74
2021/03/13 00:30:19;;;;;;;1.30;0.80;;;6.10;34.90;;;;;;5051911;28;20182;-74
2021/03/13 00:32:46;;;;;;;1.30;0.95;;;6.10;33.90;;;;;;5053783;28;20177;-73
2021/03/13 00:35:12;;;;;;;1.85;1.13;;;6.10;33.90;;;;;;5053593;28;20236;-74
2021/03/13 00:37:38;;;;;;;1.58;1.05;;;6.10;33.90;;;;;;5053705;28;20174;-74
2021/03/13 00:40:06;;;;;;;1.60;0.83;;;6.10;33.40;;;;;;5051613;28;20675;-74
2021/03/13 00:42:32;;;;;;;3.40;1.15;;;6.10;33.40;;;;;;5053531;28;20877;-73
2021/03/13 00:44:57;;;;;;;2.53;1.23;;;6.10;33.50;;;;;;5053621;28;20175;-74
2021/03/13 00:47:24;;;;;;;1.50;0.90;;;6.10;33.20;;;;;;5052210;28;20179;-74
2021/03/13 00:49:50;;;;;;;3.15;1.30;;;6.10;33.10;;;;;;5051307;28;20196;-73
2021/03/13 00:52:16;;;;;;;4.90;1.80;;;6.20;33.00;;;;;;5053510;28;20266;-73
2021/03/13 00:54:41;;;;;;;1.63;0.93;;;6.20;32.50;;;;;;5052079;28;20720;-74
2021/03/13 00:57:07;;;;;;;1.87;1.33;;;6.40;32.10;;;;;;5053238;28;20410;-73
2021/03/13 00:59:32;;;;;;;2.17;1.10;;;6.50;30.60;;;;;;5052530;28;20207;-73
2021/03/13 01:01:58;;;;;;;1.80;1.07;;;6.60;29.80;;;;;;5053099;28;20207;-73
2021/03/13 01:04:24;;;;;;;1.40;0.70;;;6.70;29.50;;;;;;5053209;28;20171;-70
2021/03/13 01:06:50;;;;;;;2.10;1.30;;;6.80;29.50;;;;;;5053111;28;20187;-73
2021/03/13 01:09:15;;;;;;;1.75;1.23;;;6.80;29.00;;;;;;5050899;28;20199;-73
2021/03/13 01:11:41;;;;;;;2.20;1.13;;;6.90;28.40;;;;;;5053179;28;20189;-73
2021/03/13 01:14:07;;;;;;;1.20;1.07;;;6.90;28.60;;;;;;5053870;28;20260;-73
2021/03/13 01:16:32;;;;;;;1.80;1.00;;;7.00;28.30;;;;;;5053047;28;20188;-74
2021/03/13 01:18:58;;;;;;;1.93;1.20;;;7.00;27.80;;;;;;5052258;28;20257;-74
2021/03/13 01:21:24;;;;;;;1.80;1.20;;;7.00;27.70;;;;;;5052896;28;20205;-73
2021/03/13 01:23:49;;;;;;;2.07;1.20;;;7.10;27.50;;;;;;5052843;28;20173;-73
2021/03/13 01:26:15;;;;;;;2.33;1.40;;;7.10;27.60;;;;;;5052077;28;20187;-73
2021/03/13 01:28:40;;;;;;;2.33;1.70;;;7.20;27.20;;;;;;5052783;28;20265;-74
2021/03/13 01:31:06;;;;;;;2.50;1.33;;;7.30;27.00;;;;;;5052241;28;20571;-73
2021/03/13 01:33:31;;;;;;;1.60;1.43;;;7.30;26.60;;;;;;5052761;28;20206;-73
2021/03/13 01:35:57;;;;;;;2.30;1.10;;;7.30;26.60;;;;;;5052967;28;20257;-74
2021/03/13 01:38:23;;;;;;;6.13;1.70;;;7.30;26.70;;;;;;5052471;28;20679;-74
2021/03/13 01:40:48;;;;;;;3.20;1.80;;;7.20;27.00;;;;;;5051907;28;20246;-73
2021/03/13 01:43:14;;;;;;;3.97;1.83;;;7.10;27.00;;;;;;5051227;28;20207;-73
2021/03/13 01:45:40;;;;;;;2.40;1.57;;;7.00;27.40;;;;;;5052550;28;20173;-74
2021/03/13 01:48:06;;;;;;;1.67;1.40;;;7.00;27.60;;;;;;5052467;28;20199;-73
2021/03/13 01:50:32;;;;;;;3.05;1.50;;;6.90;27.70;;;;;;5067053;28;20172;-73
2021/03/13 01:52:58;;;;;;;3.53;1.77;;;6.90;27.80;;;;;;5051291;28;20685;-75
2021/03/13 01:55:23;;;;;;;4.60;1.43;;;6.90;27.90;;;;;;5052496;28;20457;-73
2021/03/13 01:57:49;;;;;;;7.77;1.80;;;6.90;27.40;;;;;;5052392;28;20206;-74
2021/03/13 02:00:18;;;;;;;3.30;2.00;;;6.90;27.40;;;;;;5050414;28;20183;-74
2021/03/13 02:02:44;;;;;;;2.05;1.60;;;6.90;27.10;;;;;;5052133;28;20190;-73
2021/03/13 02:05:23;;;;;;;2.27;1.80;;;6.90;27.10;;;;;;5052455;28;20168;-73
2021/03/13 02:08:10;;;;;;;3.65;2.10;;;7.00;26.70;;;;;;5051975;28;20414;-73
2021/03/13 02:11:20;;;;;;;10.40;2.70;;;7.00;26.60;;;;;;5051586;28;20166;-73
2021/03/13 02:14:21;;;;;;;4.45;1.60;;;7.00;26.30;;;;;;5051983;28;20211;-73
2021/03/13 02:17:18;;;;;;;2.20;1.80;;;7.00;26.60;;;;;;5052100;28;20217;-74
2021/03/13 02:20:12;;;;;;;2.63;2.25;;;6.90;26.30;;;;;;5052522;28;20747;-73
2021/03/13 02:22:40;;;;;;;2.47;1.60;;;6.90;26.20;;;;;;5051887;28;20342;-73
2021/03/13 02:25:40;;;;;;;4.25;2.00;;;6.90;26.10;;;;;;5051777;28;20426;-73
2021/03/13 02:28:29;;;;;;;3.42;1.75;;;6.90;26.10;;;;;;5050447;28;20171;-74
2021/03/13 02:30:56;;;;;;;1.70;1.38;;;6.90;26.20;;;;;;5051100;28;20179;-73
2021/03/13 02:33:27;;;;;;;3.08;2.25;;;6.90;26.10;;;;;;5051671;28;20172;-73
2021/03/13 02:36:11;;;;;;;5.13;2.50;;;6.90;25.90;;;;;;5067173;28;20206;-73
2021/03/13 02:38:45;;;;;;;1.70;1.60;;;6.90;25.90;;;;;;5050511;28;20214;-73
2021/03/13 02:41:16;;;;;;;6.80;2.70;;;7.00;25.60;;;;;;5051393;28;20696;-73
2021/03/13 02:43:46;;;;;;;7.10;1.65;;;7.00;25.60;;;;;;5050266;28;20212;-73
2021/03/13 02:46:14;;;;;;;2.00;1.80;;;7.00;25.60;;;;;;5050058;28;20188;-73
2021/03/13 02:48:40;;;;;;;3.60;2.25;;;7.10;26.20;;;;;;5049857;28;20196;-74
2021/03/13 02:51:06;;;;;;;6.10;2.40;;;7.20;25.60;;;;;;5050865;28;20784;-73
2021/03/13 02:53:36;;;;;;;2.70;1.63;;;7.10;25.60;;;;;;5051389;28;20417;-73
2021/03/13 02:56:03;;;;;;;4.38;2.92;;;7.20;25.40;;;;;;5055241;28;20442;-73
2021/03/13 02:58:33;;;;;;;3.15;2.40;;;7.20;25.20;;;;;;5069418;28;20209;-73
2021/03/13 03:00:59;;;;;;;2.70;2.00;;;7.20;25.20;;;;;;5068903;28;20256;-73
2021/03/13 03:03:26;;;;;;;2.23;1.80;;;7.20;25.10;;;;;;5059772;28;20176;-74
2021/03/13 03:05:55;;;;;;;4.80;2.20;;;7.10;25.20;;;;;;5051097;28;20418;-73
2021/03/13 03:08:22;;;;;;;2.10;1.90;;;7.10;25.60;;;;;;5050825;28;20195;-73
2021/03/13 03:10:48;;;;;;;2.05;1.95;;;7.10;25.10;;;;;;5050473;28;20415;-73
2021/03/13 03:13:14;;;;;;;3.90;2.28;;;7.20;25.30;;;;;;5050972;28;20174;-71
2021/03/13 03:15:40;;;;;;;3.47;2.13;;;7.20;25.20;;;;;;5067097;28;20666;-72
2021/03/13 03:18:11;;;;;;;2.55;2.03;;;7.30;24.90;;;;;;5066666;28;20654;-71
2021/03/13 03:20:37;;;;;;;2.83;2.30;;;7.40;24.80;;;;;;5049096;28;20655;-71
2021/03/13 03:23:05;;;;;;;2.40;2.30;;;7.50;24.50;;;;;;5066207;28;20420;-72
2021/03/13 03:25:31;;;;;;;2.70;2.43;;;7.50;24.30;;;;;;5050785;28;20495;-71
2021/03/13 03:27:57;;;;;;;2.77;2.50;;;7.50;24.30;;;;;;5050628;28;20421;-71
2021/03/13 03:30:32;;;;;;;3.30;3.00;;;7.60;23.90;;;;;;5048901;28;20429;-71
2021/03/13 03:32:58;;;;;;;2.57;2.37;;;7.60;23.60;;;;;;5066031;28;20180;-72
2021/03/13 03:35:26;;;;;;;4.63;2.60;;;7.70;23.70;;;;;;5066145;28;20417;-71
2021/03/13 03:37:54;;;;;;;6.30;2.57;;;7.70;23.20;;;;;;5050631;28;20459;-72
2021/03/13 03:40:22;;;;;;;2.93;2.63;;;7.70;23.60;;;;;;5049020;28;20436;-72
2021/03/13 03:42:57;;;;;;;3.10;2.27;;;7.70;23.60;;;;;;5049532;28;20437;-72
2021/03/13 03:45:24;;;;;;;2.67;2.47;;;7.70;23.50;;;;;;5049271;28;20914;-72
2021/03/13 03:47:51;;;;;;;3.07;2.17;;;7.80;23.60;;;;;;5066082;28;20432;-72
2021/03/13 03:50:19;;;;;;;3.50;2.30;;;7.80;24.70;;;;;;5053712;28;20451;-72
2021/03/13 03:52:54;;;;;;;1.80;1.70;;;7.80;25.40;;;;;;5054856;28;20438;-72
2021/03/13 03:55:22;;;;;;;4.70;1.60;;;7.80;26.10;;;;;;5056344;28;20510;-72
2021/03/13 03:57:49;;;;;;;2.20;1.97;;;7.70;26.30;;;;;;5054780;28;20419;-72
2021/03/13 04:00:18;;;;;;;5.87;2.20;;;7.70;26.10;;;;;;5054377;28;20427;-72
2021/03/13 04:02:44;;;;;;;1.97;1.77;;;7.60;25.90;;;;;;5059517;28;20505;-72
2021/03/13 04:05:12;;;;;;;1.53;1.43;;;7.50;25.90;;;;;;5089962;28;20539;-72
2021/03/13 04:07:38;;;;;;;4.20;1.80;;;7.50;26.40;;;;;;5074496;28;20448;-72
2021/03/13 04:10:06;;;;;;;1.40;1.30;;;7.40;26.20;;;;;;5074278;28;20468;-72
2021/03/13 04:12:33;;;;;;;2.00;1.73;;;7.40;26.40;;;;;;5074182;28;20515;-72
2021/03/13 04:15:00;;;;;;;1.80;1.53;;;7.30;26.20;;;;;;5074282;28;21115;-72
2021/03/13 04:17:27;;;;;;;3.20;1.43;;;7.30;26.10;;;;;;5074299;28;20418;-72
2021/03/13 04:19:54;;;;;;;1.83;1.60;;;7.40;25.80;;;;;;5073988;28;20475;-72
2021/03/13 04:22:22;;;;;;;1.70;1.60;;;7.40;25.50;;;;;;5074256;28;20459;-72
2021/03/13 04:24:49;;;;;;;1.70;1.60;;;7.50;25.60;;;;;;5074355;28;20418;-72
2021/03/13 04:27:17;;;;;;;1.73;1.63;;;7.50;25.50;;;;;;5074111;28;20411;-72
2021/03/13 04:29:42;;;;;;;2.20;2.00;;;7.50;25.30;;;;;;5073738;28;20428;-72
2021/03/13 04:32:09;;;;;;;7.67;1.90;;;7.50;25.20;;;;;;5089721;28;20430;-72
2021/03/13 04:34:35;;;;;;;3.20;2.23;;;7.60;25.00;;;;;;5074015;28;20280;-72
2021/03/13 04:37:03;;;;;;;2.43;2.23;;;7.60;24.90;;;;;;5073894;28;20419;-72
2021/03/13 04:39:29;;;;;;;2.43;2.00;;;7.60;25.20;;;;;;5061187;22;20533;-75
2021/03/13 04:41:56;;;;;;;1.97;1.87;;;7.70;25.60;;;;;;4998955;28;21008;-74
2021/03/13 04:44:22;;;;;;;8.07;2.20;;;7.70;24.70;;;;;;5016152;28;20429;-72
2021/03/13 04:46:49;;;;;;;2.50;2.30;;;7.70;25.10;;;;;;5000061;28;20433;-73
2021/03/13 04:49:15;;;;;;;5.83;2.47;;;7.70;24.20;;;;;;5003315;28;20463;-75
2021/03/13 04:51:42;;;;;;;2.53;2.33;;;7.70;23.90;;;;;;4999066;28;20425;-74
2021/03/13 04:54:08;;;;;;;5.30;2.90;;;7.70;23.50;;;;;;5000389;28;20438;-74
2021/03/13 04:56:34;;;;;;;2.70;2.33;;;7.80;24.00;;;;;;5000297;28;20418;-75
2021/03/13 04:58:59;;;;;;;2.87;2.53;;;7.90;22.90;;;;;;4979671;28;20511;-73
2021/03/13 05:01:25;;;;;;;2.90;2.70;;;7.90;22.90;;;;;;4979046;28;20220;-74
2021/03/13 05:03:50;;;;;;;2.57;2.37;;;8.00;23.00;;;;;;4986535;28;20215;-75
2021/03/13 05:06:16;;;;;;;2.90;2.70;;;8.00;22.70;;;;;;4998793;28;20571;-73
2021/03/13 05:08:41;;;;;;;2.27;2.17;;;8.00;22.60;;;;;;4999359;28;20539;-73
2021/03/13 05:11:08;;;;;;;2.57;2.47;;;8.10;22.60;;;;;;4998480;28;20236;-75
2021/03/13 05:13:34;;;;;;;2.77;2.63;;;8.10;22.70;;;;;;4999056;28;20208;-73
2021/03/13 05:16:00;;;;;;;3.73;2.70;;;8.10;22.60;;;;;;4999578;28;20475;-75
2021/03/13 05:18:25;;;;;;;4.20;2.47;;;8.10;22.60;;;;;;4999514;28;20191;-74
2021/03/13 05:20:51;;;;;;;2.50;2.40;;;8.10;22.60;;;;;;4998062;28;20208;-75
2021/03/13 05:23:16;;;;;;;2.57;2.47;;;8.00;22.50;;;;;;4997098;28;20188;-73
2021/03/13 05:25:43;;;;;;;3.30;3.00;;;8.10;22.70;;;;;;4995611;28;20192;-74
2021/03/13 05:28:09;;;;;;;3.33;3.03;;;8.10;22.70;;;;;;4997958;28;20831;-75
2021/03/13 05:30:35;;;;;;;3.63;3.33;;;8.10;22.20;;;;;;4996830;28;20432;-73
2021/03/13 05:33:00;;;;;;;2.87;2.77;;;8.10;22.20;;;;;;4998783;28;20289;-72
2021/03/13 05:35:26;;;;;;;2.93;2.73;;;8.10;22.20;;;;;;4981925;28;20575;-75
2021/03/13 05:37:51;;;;;;;2.80;2.60;;;8.20;22.20;;;;;;4998055;28;20180;-73
2021/03/13 05:40:17;;;;;;;3.10;2.90;;;8.10;22.70;;;;;;4998636;28;20235;-74
2021/03/13 05:42:43;;;;;;;3.20;3.00;;;8.10;22.70;;;;;;4997700;28;20291;-74
2021/03/13 05:45:09;;;;;;;2.70;2.60;;;8.10;22.70;;;;;;4998530;28;20684;-71
2021/03/13 05:47:41;;;;;;;2.50;2.40;;;8.10;22.70;;;;;;4997522;28;20188;-74
2021/03/13 05:50:13;;;;;;;2.80;2.70;;;8.00;22.00;;;;;;4997703;28;20468;-73
2021/03/13 05:52:40;;;;;;;3.00;2.80;;;8.00;22.50;;;;;;4997290;28;20432;-74
2021/03/13 05:55:08;;;;;;;2.77;2.57;;;8.00;22.60;;;;;;4999242;28;20789;-74
2021/03/13 05:57:34;;;;;;;3.00;2.80;;;8.00;22.70;;;;;;4997030;28;20486;-74
2021/03/13 06:00:01;;;;;;;2.70;2.60;;;8.10;22.60;;;;;;4997365;28;20493;-74
2021/03/13 06:02:26;;;;;;;2.50;2.40;;;8.10;22.90;;;;;;4996667;28;21054;-73
2021/03/13 06:04:53;;;;;;;3.33;3.13;;;8.00;23.10;;;;;;4998008;28;20423;-74
2021/03/13 06:07:23;;;;;;;2.87;2.67;;;8.10;23.30;;;;;;4997312;28;20179;-75
2021/03/13 06:09:57;;;;;;;2.70;2.60;;;8.10;23.00;;;;;;4997593;28;20439;-72
2021/03/13 06:12:24;;;;;;;3.40;3.17;;;8.10;22.70;;;;;;4997847;28;20435;-73
2021/03/13 06:14:52;;;;;;;3.00;2.70;;;8.10;23.00;;;;;;4998625;28;20418;-74
2021/03/13 06:17:18;;;;;;;3.70;3.33;;;8.10;22.60;;;;;;4998266;28;20445;-73
2021/03/13 06:19:52;;;;;;;3.20;2.67;;;8.20;23.30;;;;;;4996102;28;20466;-75
2021/03/13 06:22:35;;;;;;;3.40;3.10;;;8.20;22.70;;;;;;4997489;28;20837;-74
2021/03/13 06:25:21;;;;;;;3.70;3.40;;;8.20;22.40;;;;;;4996926;28;20984;-74
2021/03/13 06:28:03;;;;;;;3.30;3.10;;;8.20;22.50;;;;;;5002028;28;20434;-75
2021/03/13 06:30:41;;;;;;;3.10;2.90;;;8.20;22.20;;;;;;4999243;28;20817;-75
2021/03/13 06:33:19;;;;;;;2.90;2.60;;;8.30;22.50;;;;;;5000708;28;20431;-73
2021/03/13 06:35:46;;;;;;;4.47;3.27;;;8.20;22.90;;;;;;5000219;28;20410;-73
2021/03/13 06:38:18;;;;;;;3.23;2.90;;;8.20;23.30;;;;;;4998735;28;20411;-70
2021/03/13 06:40:44;;;;;;;6.83;3.17;;;8.20;23.00;;;;;;4995746;28;20435;-73
2021/03/13 06:43:25;;;;;;;3.20;3.00;;;8.20;23.00;;;;;;4998679;28;20514;-71
2021/03/13 06:45:54;;;;;;;2.77;2.67;;;8.20;22.70;;;;;;4997934;28;20423;-73
2021/03/13 06:48:46;;;;;;;4.33;4.03;;;8.30;22.60;;;;;;4999317;28;20511;-72
2021/03/13 06:51:23;;;;;;;4.60;3.40;;;8.40;22.30;;;;;;4988639;28;20427;-72
2021/03/13 06:54:04;;;;;;;3.20;3.10;;;8.40;22.30;;;;;;4997132;28;20434;-74
2021/03/13 06:56:31;;;;;;;3.63;3.43;;;8.50;22.00;;;;;;4999984;28;20913;-74
2021/03/13 06:58:58;;;;;;;4.00;3.80;;;8.50;21.80;;;;;;4998922;28;20450;-73
2021/03/13 07:01:31;;;;;;;4.00;3.80;;;8.60;22.00;;;;;;4997853;28;20452;-72
2021/03/13 07:03:58;;;;;;;3.73;3.60;;;8.70;21.50;;;;;;4998161;28;20474;-73
2021/03/13 07:06:24;;;;;;;3.60;3.40;;;8.70;20.70;;;;;;4998708;28;20513;-73
2021/03/13 07:08:51;;;;;;;3.80;3.60;;;8.70;21.50;;;;;;4999119;28;20451;-73
2021/03/13 07:11:23;;;;;;;4.93;4.53;;;8.80;20.90;;;;;;4999182;28;20419;-72
2021/03/13 07:13:53;;;;;;;4.30;4.00;;;8.70;20.60;;;;;;5000166;28;20492;-72
2021/03/13 07:16:24;;;;;;;4.27;4.07;;;8.80;20.10;;;;;;5000167;28;20452;-73
2021/03/13 07:18:54;;;;;;;4.27;4.07;;;8.80;20.40;;;;;;4995233;28;20491;-73
2021/03/13 07:21:22;;;;;;;4.00;3.80;;;8.80;20.20;;;;;;4996679;28;20563;-72
2021/03/13 07:24:05;;;;;;;4.53;4.33;;;8.80;20.10;;;;;;5000420;28;20432;-72
2021/03/13 07:26:41;;;;;;;5.27;4.77;;;8.90;19.60;;;;;;5002616;28;20442;-73
2021/03/13 07:29:09;;;;;;;4.60;4.40;;;8.90;19.30;;;;;;5003760;28;20440;-72
2021/03/13 07:31:40;;;;;;;5.87;4.57;;;9.00;19.10;;;;;;5006324;28;20412;-71
2021/03/13 07:34:28;;;;;;;5.17;4.97;;;9.00;18.50;;;;;;5003843;28;20487;-71
2021/03/13 07:36:58;;;;;;;5.73;5.43;;;9.10;18.80;;;;;;5008526;28;20436;-72
2021/03/13 07:39:28;;;;;;;4.87;4.67;;;9.30;18.60;;;;;;4996864;28;20628;-69
2021/03/13 07:42:14;;;;;;;6.13;5.87;;;9.40;18.70;;;;;;5001550;28;20465;-71
2021/03/13 07:44:41;;;;;;;5.43;5.23;;;9.40;18.40;;;;;;5000442;28;20412;-72
2021/03/13 07:47:09;;;;;;;5.10;4.90;;;9.50;18.20;;;;;;4994086;28;20424;-72
2021/03/13 07:49:36;;;;;;;5.67;5.47;;;9.60;17.80;;;;;;4994773;28;20530;-72
2021/03/13 07:52:03;;;;;;;5.63;5.43;;;9.70;17.80;;;;;;4994904;28;20437;-71
2021/03/13 07:54:39;;;;;;;6.00;5.70;;;9.80;17.20;;;;;;4991498;28;20527;-70
2021/03/13 07:57:06;;;;;;;5.87;5.57;;;9.90;17.10;;;;;;4991449;28;20867;-73
2021/03/13 07:59:52;;;;;;;6.03;5.83;;;9.90;16.80;;;;;;4991092;28;20533;-72
2021/03/13 08:02:30;;;;;;;6.17;5.90;;;9.90;16.30;;;;;;4992252;28;20481;-72
2021/03/13 08:05:00;;;;;;;6.80;6.50;;;10.00;16.00;;;;;;4991325;28;20408;-72
2021/03/13 08:07:27;;;;;;;5.90;5.70;;;10.10;15.80;;;;;;4991747;28;20437;-71
2021/03/13 08:09:53;;;;;;;6.50;6.23;;;10.10;15.70;;;;;;4991016;28;20448;-72
2021/03/13 08:12:41;;;;;;;6.43;6.13;;;10.20;15.50;;;;;;4991241;28;20429;-72
2021/03/13 08:15:31;;;;;;;7.17;6.87;;;10.20;15.30;;;;;;4990421;28;20872;-70
2021/03/13 08:17:57;;;;;;;6.83;6.53;;;10.30;15.40;;;;;;4991569;28;20425;-71
2021/03/13 08:20:33;;;;;;;7.43;7.13;;;10.40;15.10;;;;;;4989534;28;20457;-71
2021/03/13 08:23:19;;;;;;;7.70;7.30;;;10.40;15.00;;;;;;4990086;28;20186;-69
2021/03/13 08:25:55;;;;;;;7.57;7.17;;;10.50;14.60;;;;;;4991270;28;20422;-71
2021/03/13 08:28:49;;;;;;;7.10;6.80;;;10.50;15.10;;;;;;4991331;28;20527;-70
2021/03/13 08:31:36;;;;;;;7.03;6.73;;;10.60;14.70;;;;;;4981079;28;20450;-69
2021/03/13 08:34:04;;;;;;;6.93;6.63;;;10.80;14.20;;;;;;4971662;28;20420;-71
2021/03/13 08:36:49;;;;;;;6.40;6.20;;;10.80;14.00;;;;;;4982027;28;20800;-70
2021/03/13 08:39:23;;;;;;;7.23;6.93;;;10.70;13.40;;;;;;4994599;28;20443;-71
2021/03/13 08:41:56;;;;;;;7.20;6.90;;;10.80;13.30;;;;;;4999584;28;20544;-73
2021/03/13 08:44:25;;;;;;;6.90;6.67;;;10.80;13.00;;;;;;4994584;28;20423;-71
2021/03/13 08:47:08;;;;;;;8.03;7.73;;;10.90;13.10;;;;;;4992411;28;20418;-70
2021/03/13 08:49:35;;;;;;;8.10;7.70;;;11.10;12.30;;;;;;5008587;28;20546;-72
2021/03/13 08:52:07;;;;;;;7.90;7.50;;;11.30;12.30;;;;;;4989255;28;20863;-72
2021/03/13 08:54:38;;;;;;;7.90;7.60;;;11.50;10.90;;;;;;4996206;28;20428;-71
2021/03/13 08:57:10;;;;;;;8.63;8.17;;;11.50;10.70;;;;;;4997984;28;20418;-70
2021/03/13 08:59:41;;;;;;;8.20;7.90;;;11.60;10.80;;;;;;4996852;28;20461;-71
2021/03/13 09:02:12;;;;;;;8.60;8.20;;;11.60;10.80;;;;;;4997921;28;20465;-70
2021/03/13 09:04:40;;;;;;;8.30;8.00;;;11.70;10.80;;;;;;4997631;28;20415;-71
2021/03/13 09:07:07;;;;;;;7.63;7.33;;;11.80;10.40;;;;;;4996143;28;20429;-70
2021/03/13 09:09:35;;;;;;;7.63;7.37;;;12.10;11.10;;;;;;4997511;28;20510;-71
2021/03/13 09:12:08;;;;;;;8.10;7.70;;;12.40;9.70;;;;;;4997980;28;20410;-71
2021/03/13 09:14:35;;;;;;;8.57;8.27;;;12.30;9.90;;;;;;4997487;28;20502;-72
2021/03/13 09:17:14;;;;;;;8.90;8.00;;;12.10;9.90;;;;;;4996970;28;20423;-72
2021/03/13 09:19:42;;;;;;;8.40;8.10;;;12.20;9.80;;;;;;4996230;28;20793;-73
2021/03/13 09:22:10;;;;;;;8.67;8.37;;;12.20;10.10;;;;;;4996985;28;20482;-71
2021/03/13 09:24:36;;;;;;;8.20;7.87;;;12.30;9.70;;;;;;4997081;28;20437;-71
2021/03/13 09:27:04;;;;;;;8.80;8.37;;;12.30;9.70;;;;;;4995374;28;20439;-71
2021/03/13 09:29:37;;;;;;;8.67;8.37;;;12.30;9.70;;;;;;4993034;28;20439;-72
2021/03/13 09:32:06;;;;;;;8.53;8.20;;;12.30;9.40;;;;;;4993731;28;20419;-71
2021/03/13 09:34:33;;;;;;;8.10;7.80;;;12.20;9.50;;;;;;4982867;28;20425;-72
2021/03/13 09:37:07;;;;;;;8.27;7.97;;;12.20;9.90;;;;;;4982986;28;20428;-72
2021/03/13 09:39:33;;;;;;;9.27;8.87;;;12.20;10.30;;;;;;4993240;28;21277;-71
2021/03/13 09:42:11;;;;;;;10.53;9.50;;;12.20;10.00;;;;;;4993855;28;20469;-72
2021/03/13 09:44:47;;;;;;;8.87;8.57;;;12.20;10.20;;;;;;4997545;28;20543;-72
2021/03/13 09:47:15;;;;;;;8.53;8.23;;;12.20;10.40;;;;;;4992658;28;21021;-72
2021/03/13 09:49:43;;;;;;;8.37;8.07;;;12.30;10.20;;;;;;4993878;28;20444;-72
2021/03/13 09:52:08;;;;;;;9.67;9.30;;;12.40;10.20;;;;;;4992334;28;20439;-73
2021/03/13 09:54:34;;;;;;;8.87;8.37;;;12.40;9.90;;;;;;4994127;28;20514;-72
2021/03/13 09:57:08;;;;;;;8.90;8.60;;;12.30;10.70;;;;;;4993380;28;20431;-72
2021/03/13 09:59:34;;;;;;;9.30;9.00;;;12.30;10.80;;;;;;4985623;28;20207;-73
2021/03/13 10:01:59;;;;;;;9.40;9.00;;;12.50;10.90;;;;;;5003387;28;20472;-73
2021/03/13 10:04:25;;;;;;;8.60;8.30;;;12.50;10.20;;;;;;5002929;28;20764;-73
2021/03/13 10:06:51;;;;;;;9.07;8.77;;;12.50;10.30;;;;;;5000813;28;20168;-71
2021/03/13 10:09:17;;;;;;;9.13;8.73;;;12.40;10.60;;;;;;4988280;28;20225;-71
2021/03/13 10:11:43;;;;;;;8.70;8.40;;;12.40;10.70;;;;;;4993502;28;20184;-72
2021/03/13 10:14:22;;;;;;;9.17;8.87;;;12.40;11.10;;;;;;4992787;28;20181;-72
2021/03/13 10:16:58;;;;;;;9.13;8.73;;;12.50;11.00;;;;;;4992304;28;20944;-72
2021/03/13 10:19:34;;;;;;;9.23;8.77;;;12.40;10.90;;;;;;4992306;28;20598;-72
2021/03/13 10:22:06;;;;;;;9.53;9.13;;;12.30;11.30;;;;;;4996990;28;20481;-72
2021/03/13 10:24:44;;;;;;;8.63;8.33;;;12.30;11.30;;;;;;4998738;28;20419;-73
2021/03/13 10:27:10;;;;;;;8.63;8.33;;;12.50;11.40;;;;;;4996116;28;20440;-73
2021/03/13 10:29:36;;;;;;;9.47;9.07;;;12.50;10.70;;;;;;4996594;28;20438;-72
2021/03/13 10:32:03;;;;;;;8.80;8.50;;;12.50;10.80;;;;;;4996063;28;20208;-73
2021/03/13 10:34:36;;;;;;;8.80;8.47;;;12.40;11.00;;;;;;4995754;28;20786;-71
2021/03/13 10:37:02;;;;;;;8.60;8.30;;;12.40;10.70;;;;;;4995524;28;20420;-72
2021/03/13 10:39:28;;;;;;;8.80;8.50;;;12.40;10.60;;;;;;5029690;22;20959;-74
2021/03/13 10:41:59;;;;;;;8.33;8.03;;;;;;;;;;5056713;28;20551;-74
2021/03/13 10:44:25;;;;;;;8.73;8.43;;;12.50;10.30;;;;;;5062930;28;20200;-74
2021/03/13 10:46:51;;;;;;;9.37;8.77;;;;;;;;;;5060040;28;20456;-73
2021/03/13 10:49:27;;;;;;;9.50;9.10;;;12.50;10.10;;;;;;5045383;28;20245;-73
2021/03/13 10:51:54;;;;;;;9.30;9.00;;;12.70;11.30;;;;;;5032892;28;20782;-71
2021/03/13 10:54:30;;;;;;;9.13;8.83;;;12.80;10.50;;;;;;5039169;28;20459;-71
2021/03/13 10:57:04;;;;;;;8.90;8.60;;;13.00;10.10;;;;;;5048010;28;20465;-72
2021/03/13 10:59:33;;;;;;;9.53;9.23;;;13.20;10.20;;;;;;5040159;28;20459;-72
2021/03/13 11:01:59;;;;;;;9.33;8.83;;;13.20;9.80;;;;;;5044616;28;20484;-73
2021/03/13 11:04:24;;;;;;;9.37;8.97;;;13.10;9.30;;;;;;5030977;28;20411;-73
2021/03/13 11:06:54;;;;;;;8.93;8.63;;;12.90;10.30;;;;;;5031649;28;20683;-72
2021/03/13 11:09:23;;;;;;;9.20;8.53;;;12.80;10.50;;;;;;5035092;28;20280;-71
2021/03/13 11:11:48;;;;;;;9.73;9.30;;;12.70;10.40;;;;;;5044302;28;20432;-71
2021/03/13 11:14:14;;;;;;;8.97;8.67;;;12.50;10.40;;;;;;5030869;28;21235;-71
2021/03/13 11:16:39;;;;;;;8.73;8.40;;;12.30;10.60;;;;;;5047192;28;20420;-71
2021/03/13 11:19:05;;;;;;;9.20;8.90;;;12.30;11.00;;;;;;5049522;28;20244;-71
2021/03/13 11:21:31;;;;;;;9.17;8.87;;;12.20;10.90;;;;;;5049811;28;20257;-71
2021/03/13 11:23:57;;;;;;;9.87;9.47;;;12.20;10.90;;;;;;5032335;28;20186;-71
2021/03/13 11:26:24;;;;;;;10.43;9.83;;;12.20;10.20;;;;;;5050392;28;20701;-71
2021/03/13 11:28:50;;;;;;;9.60;9.20;;;12.20;10.40;;;;;;5042247;28;20821;-71
2021/03/13 11:31:16;;;;;;;9.70;9.30;;;12.30;10.60;;;;;;5048824;28;20425;-71
2021/03/13 11:33:42;;;;;;;9.40;9.10;;;12.40;10.10;;;;;;5046232;28;20425;-71
2021/03/13 11:36:09;;;;;;;9.67;9.27;;;12.30;9.70;;;;;;5029266;28;20512;-71
2021/03/13 11:38:36;;;;;;;9.63;9.23;;;12.30;9.50;;;;;;5030426;28;20420;-71
2021/03/13 11:41:06;;;;;;;9.37;9.07;;;12.30;9.80;;;;;;5030873;28;21001;-71
2021/03/13 11:43:33;;;;;;;9.70;9.30;;;12.20;9.40;;;;;;5029432;28;20423;-71
2021/03/13 11:45:59;;;;;;;10.50;10.10;;;12.20;10.10;;;;;;5043750;28;20863;-71
2021/03/13 11:48:24;;;;;;;10.33;9.53;;;12.30;9.70;;;;;;5050475;28;20454;-70
2021/03/13 11:50:51;;;;;;;10.17;9.77;;;;;;;;;;5053339;28;20266;-74
2021/03/13 11:53:18;;;;;;;10.13;9.73;;;12.20;9.50;;;;;;5056555;28;20185;-72
2021/03/13 11:55:44;;;;;;;9.00;8.70;;;12.20;10.20;;;;;;5044032;28;20869;-76
2021/03/13 11:58:11;;;;;;;9.57;9.27;;;12.40;10.70;;;;;;5048483;28;20547;-72
2021/03/13 12:00:37;;;;;;;9.70;9.40;;;12.40;9.40;;;;;;5033806;28;20434;-72
2021/03/13 12:03:03;;;;;;;10.07;9.67;;;12.40;9.70;;;;;;5032756;28;20426;-72
2021/03/13 12:05:29;;;;;;;10.23;9.83;;;12.30;9.90;;;;;;5037341;28;20651;-74
2021/03/13 12:07:54;;;;;;;9.93;9.63;;;12.40;10.00;;;;;;5032733;28;20491;-72
2021/03/13 12:10:20;;;;;;;9.57;9.07;;;12.30;9.90;;;;;;5044948;28;20616;-73
2021/03/13 12:12:45;;;;;;;10.17;9.80;;;12.20;10.10;;;;;;5045279;28;20189;-73
2021/03/13 12:15:11;;;;;;;9.80;9.50;;;12.20;10.00;;;;;;5045396;28;20195;-72
2021/03/13 12:17:37;;;;;;;10.17;9.77;;;12.20;9.90;;;;;;5038762;28;20615;-72
2021/03/13 12:20:06;;;;;;;9.70;9.40;;;12.10;10.80;;;;;;5037811;28;20198;-73
2021/03/13 12:22:31;;;;;;;9.70;9.40;;;12.10;10.30;;;;;;5054107;28;20495;-71
2021/03/13 12:24:57;;;;;;;9.50;9.20;;;12.10;10.90;;;;;;5036133;28;20426;-73
2021/03/13 12:27:23;;;;;;;9.57;9.23;;;12.10;11.10;;;;;;5034965;28;20651;-74
2021/03/13 12:29:50;;;;;;;21.13;10.60;;;12.10;11.10;;;;;;5033529;28;20291;-74
2021/03/13 12:32:16;;;;;;;9.87;9.57;;;12.20;11.20;;;;;;5034427;28;20214;-74
2021/03/13 12:34:42;;;;;;;9.30;9.00;;;12.20;11.20;;;;;;5035096;28;20451;-73
2021/03/13 12:37:08;;;;;;;9.40;9.10;;;12.10;11.70;;;;;;5049926;28;20436;-74
2021/03/13 12:39:33;;;;;;;9.57;9.20;;;12.10;11.10;;;;;;5050184;28;20612;-72
2021/03/13 12:41:59;;;;;;;9.10;8.80;;;12.00;11.50;;;;;;5053473;28;20606;-74
2021/03/13 12:44:25;;;;;;;8.90;8.57;;;11.90;11.90;;;;;;5054093;28;20261;-74
2021/03/13 12:46:50;;;;;;;8.50;8.20;;;11.90;13.80;;;;;;5054142;28;20458;-74
2021/03/13 12:49:16;;;;;;;8.57;8.27;;;12.00;13.40;;;;;;5053979;28;20635;-75
2021/03/13 12:51:42;;;;;;;8.10;7.80;;;12.10;14.10;;;;;;5054824;28;20531;-74
2021/03/13 12:54:07;;;;;;;8.53;8.23;;;12.30;14.40;;;;;;5054043;28;20178;-75
2021/03/13 12:56:33;;;;;;;10.00;9.50;;;12.30;14.80;;;;;;5047236;28;20205;-74
2021/03/13 12:58:58;;;;;;;9.17;8.77;;;12.30;14.30;;;;;;5047955;28;20264;-74
2021/03/13 13:01:24;;;;;;;8.00;7.70;;;12.20;15.00;;;;;;5049577;28;20244;-75
2021/03/13 13:03:57;;;;;;;8.23;7.83;;;12.00;17.10;;;;;;5047638;28;20197;-73
2021/03/13 13:06:24;;;;;;;7.20;6.90;;;11.90;17.30;;;;;;5048632;28;20413;-73